createdAt,value
2023-03-28T00:01:40.781Z,36.28
2023-03-28T00:04:17.766Z,36.26
2023-03-28T00:07:13.624Z,36.29
2023-03-28T00:09:47.642Z,36.28
2023-03-28T00:12:23.816Z,36.29
2023-03-28T00:15:02.481Z,36.30
2023-03-28T00:17:41.102Z,36.28
2023-03-28T00:20:14.318Z,36.28
2023-03-28T00:22:44.939Z,36.27
2023-03-28T00:25:16.200Z,36.29
2023-03-28T00:27:58.329Z,36.28
2023-03-28T00:33:12.447Z,36.27
2023-03-28T00:35:57.971Z,36.27
2023-03-28T00:42:02.389Z,36.23
2023-03-28T00:47:53.251Z,36.18
2023-03-28T00:59:50.492Z,36.17
2023-03-28T01:02:57.698Z,36.15
2023-03-28T01:09:01.456Z,36.09
2023-03-28T01:12:05.821Z,36.11
2023-03-28T01:18:44.225Z,36.08
2023-03-28T01:21:29.061Z,36.10
2023-03-28T01:24:14.527Z,36.13
2023-03-28T01:27:01.604Z,36.09
2023-03-28T01:29:57.904Z,36.18
2023-03-28T01:33:09.397Z,36.10
2023-03-28T01:36:33.864Z,36.11
2023-03-28T01:39:03.199Z,36.11
2023-03-28T01:42:03.018Z,36.06
2023-03-28T01:45:20.212Z,36.05
2023-03-28T01:47:55.566Z,36.03
2023-03-28T01:50:55.103Z,36.03
2023-03-28T01:53:43.854Z,36.04
2023-03-28T01:56:47.029Z,35.99
2023-03-28T02:00:28.386Z,36.01
2023-03-28T02:02:45.590Z,36.02
2023-03-28T02:09:07.719Z,35.93
2023-03-28T02:11:42.622Z,35.88
2023-03-28T02:14:38.684Z,35.86
2023-03-28T02:17:46.575Z,35.85
2023-03-28T02:20:51.596Z,35.84
2023-03-28T02:27:14.911Z,35.79
2023-03-28T02:33:41.379Z,35.79
2023-03-28T02:36:31.646Z,35.80
2023-03-28T02:39:13.285Z,35.78
2023-03-28T02:41:51.816Z,35.78
2023-03-28T02:48:38.248Z,35.76
2023-03-28T02:51:41.978Z,35.75
2023-03-28T02:54:52.882Z,35.78
2023-03-28T02:57:46.356Z,35.83
2023-03-28T03:00:19.941Z,35.73
2023-03-28T03:09:20.340Z,35.71
2023-03-28T03:12:30.228Z,35.71
2023-03-28T03:18:15.756Z,35.73
2023-03-28T03:21:28.612Z,35.70
2023-03-28T03:30:19.151Z,35.71
2023-03-28T03:33:07.014Z,35.67
2023-03-28T03:36:16.547Z,35.67
2023-03-28T03:41:54.028Z,35.71
2023-03-28T03:47:24.843Z,35.68
2023-03-28T03:49:59.872Z,35.63
2023-03-28T03:52:30.352Z,35.65
2023-03-28T03:55:00.371Z,35.62
2023-03-28T03:57:32.372Z,35.59
2023-03-28T04:00:03.811Z,35.57
2023-03-28T04:02:47.296Z,35.54
2023-03-28T04:05:18.344Z,35.55
2023-03-28T04:07:48.689Z,35.54
2023-03-28T04:10:46.134Z,35.51
2023-03-28T04:13:02.786Z,35.52
2023-03-28T04:15:32.794Z,35.57
2023-03-28T04:18:06.799Z,35.57
2023-03-28T04:20:51.282Z,35.57
2023-03-28T04:23:23.145Z,35.59
2023-03-28T04:25:55.240Z,35.56
2023-03-28T04:28:58.876Z,35.56
2023-03-28T04:31:30.453Z,35.52
2023-03-28T04:34:01.104Z,35.51
2023-03-28T04:36:32.188Z,35.51
2023-03-28T04:40:09.704Z,35.49
2023-03-28T04:42:48.394Z,35.45
2023-03-28T04:45:36.618Z,35.45
2023-03-28T04:48:27.429Z,35.46
2023-03-28T04:51:03.274Z,35.45
2023-03-28T04:53:33.505Z,35.43
2023-03-28T04:56:05.361Z,35.42
2023-03-28T04:58:35.269Z,35.43
2023-03-28T05:01:06.209Z,35.43
2023-03-28T05:03:57.361Z,35.42
2023-03-28T05:06:33.698Z,35.39
2023-03-28T05:09:43.661Z,35.40
2023-03-28T05:12:55.886Z,35.37
2023-03-28T05:16:06.369Z,35.36
2023-03-28T05:18:47.131Z,35.36
2023-03-28T05:21:17.117Z,35.36
2023-03-28T05:24:06.082Z,35.36
2023-03-28T05:26:37.375Z,35.37
2023-03-28T05:29:20.298Z,35.34
2023-03-28T05:31:59.353Z,35.33
2023-03-28T05:34:32.465Z,35.36
2023-03-28T05:37:06.452Z,35.32
2023-03-28T05:39:40.543Z,35.31
2023-03-28T05:42:12.291Z,35.31
2023-03-28T05:45:00.945Z,35.33
2023-03-28T05:50:31.352Z,35.29
2023-03-28T05:52:50.910Z,35.30
2023-03-28T05:55:28.145Z,35.31
2023-03-28T05:58:03.081Z,35.30
2023-03-28T06:00:42.823Z,35.31
2023-03-28T06:03:36.866Z,35.28
2023-03-28T06:06:12.710Z,35.27
2023-03-28T06:08:47.120Z,35.25
2023-03-28T06:11:21.328Z,35.25
2023-03-28T06:13:54.991Z,35.25
2023-03-28T06:16:30.229Z,35.23
2023-03-28T06:19:17.794Z,35.23
2023-03-28T06:22:05.887Z,35.19
2023-03-28T06:24:41.403Z,35.21
2023-03-28T06:27:33.456Z,35.21
2023-03-28T06:32:47.178Z,35.21
2023-03-28T06:35:18.649Z,35.19
2023-03-28T06:37:50.702Z,35.18
2023-03-28T06:40:22.432Z,35.16
2023-03-28T06:43:02.062Z,35.17
2023-03-28T06:45:48.576Z,35.16
2023-03-28T06:51:56.019Z,35.16
2023-03-28T06:54:36.397Z,35.15
2023-03-28T06:57:34.962Z,35.15
2023-03-28T07:05:49.181Z,35.11
2023-03-28T07:08:26.360Z,35.11
2023-03-28T07:11:11.858Z,35.11
2023-03-28T07:13:44.328Z,35.09
2023-03-28T07:16:24.287Z,35.09
2023-03-28T07:18:57.226Z,35.10
2023-03-28T07:21:50.481Z,35.08
2023-03-28T07:24:48.220Z,35.07
2023-03-28T07:27:48.612Z,35.07
2023-03-28T07:30:26.472Z,35.08
2023-03-28T07:33:07.966Z,35.06
2023-03-28T07:35:34.903Z,35.05
2023-03-28T07:38:08.578Z,35.09
2023-03-28T07:40:45.927Z,35.03
2023-03-28T07:43:16.964Z,35.03
2023-03-28T07:46:01.996Z,35.07
2023-03-28T07:48:36.038Z,35.07
2023-03-28T07:51:39.930Z,35.04
2023-03-28T07:57:49.327Z,35.03
2023-03-28T08:03:35.522Z,35.03
2023-03-28T08:09:05.951Z,35.01
2023-03-28T08:11:38.285Z,35.01
2023-03-28T08:14:12.776Z,35.01
2023-03-28T08:16:48.648Z,34.97
2023-03-28T08:19:22.829Z,34.96
2023-03-28T08:21:54.871Z,34.97
2023-03-28T08:27:55.426Z,34.96
2023-03-28T08:30:41.366Z,34.93
2023-03-28T08:33:15.064Z,34.93
2023-03-28T08:35:47.597Z,34.92
2023-03-28T08:38:20.160Z,34.92
2023-03-28T08:41:11.611Z,34.94
2023-03-28T08:44:21.207Z,34.93
2023-03-28T08:46:54.202Z,34.94
2023-03-28T08:49:25.336Z,34.90
2023-03-28T08:55:19.308Z,34.88
2023-03-28T08:58:35.387Z,34.91
2023-03-28T09:04:48.269Z,34.91
2023-03-28T09:07:47.183Z,34.88
2023-03-28T09:10:22.208Z,34.88
2023-03-28T09:16:53.324Z,34.88
2023-03-28T09:19:49.046Z,34.87
2023-03-28T09:22:57.824Z,34.86
2023-03-28T09:26:53.763Z,34.90
2023-03-28T09:28:40.467Z,34.89
2023-03-28T09:31:33.882Z,34.85
2023-03-28T09:34:33.060Z,34.85
2023-03-28T09:37:25.782Z,34.87
2023-03-28T09:40:03.820Z,34.84
2023-03-28T09:46:10.776Z,34.83
2023-03-28T09:49:03.137Z,34.83
2023-03-28T09:52:00.144Z,34.81
2023-03-28T09:55:10.319Z,34.82
2023-03-28T09:58:12.701Z,34.80
2023-03-28T10:04:07.585Z,34.81
2023-03-28T10:07:00.164Z,34.79
2023-03-28T10:09:46.723Z,34.79
2023-03-28T10:16:00.343Z,34.77
2023-03-28T10:22:34.197Z,34.76
2023-03-28T10:24:52.315Z,34.73
2023-03-28T10:34:17.670Z,34.71
2023-03-28T10:36:32.339Z,34.70
2023-03-28T10:38:56.453Z,34.69
2023-03-28T10:43:10.156Z,34.69
2023-03-28T10:44:37.620Z,34.69
2023-03-28T10:47:16.532Z,34.69
2023-03-28T10:50:01.364Z,34.68
2023-03-28T10:52:55.647Z,34.68
2023-03-28T10:55:50.003Z,34.65
2023-03-28T10:59:00.976Z,34.66
2023-03-28T11:02:03.526Z,34.64
2023-03-28T11:08:25.336Z,34.75
2023-03-28T11:11:27.773Z,34.72
2023-03-28T11:14:53.271Z,34.83
2023-03-28T11:17:33.859Z,34.89
2023-03-28T11:20:39.672Z,34.93
2023-03-28T11:23:16.663Z,34.98
2023-03-28T11:25:57.479Z,34.99
2023-03-28T11:29:05.513Z,35.08
2023-03-28T11:32:17.714Z,35.10
2023-03-28T11:35:14.573Z,35.13
2023-03-28T11:38:11.720Z,35.47
2023-03-28T11:41:19.177Z,35.74
2023-03-28T11:44:04.864Z,35.85
2023-03-28T11:47:14.308Z,35.94
2023-03-28T11:50:19.237Z,36.04
2023-03-28T11:53:12.603Z,35.55
2023-03-28T11:55:58.973Z,35.55
2023-03-28T11:58:44.932Z,35.55
2023-03-28T12:04:40.763Z,35.46
2023-03-28T12:07:54.695Z,35.45
2023-03-28T12:13:55.489Z,35.59
2023-03-28T12:16:31.311Z,35.59
2023-03-28T12:19:10.540Z,35.37
2023-03-28T12:21:45.962Z,35.25
2023-03-28T12:24:31.073Z,35.52
2023-03-28T12:56:08.838Z,34.57
2023-03-28T12:59:09.395Z,34.65
2023-03-28T13:05:08.364Z,34.40
2023-03-28T13:08:34.421Z,34.41
2023-03-28T13:11:11.668Z,34.25
2023-03-28T13:14:10.463Z,34.20
2023-03-28T13:17:02.368Z,34.18
2023-03-28T13:20:11.694Z,34.42
2023-03-28T13:23:03.884Z,34.42
2023-03-28T13:26:06.609Z,34.10
2023-03-28T13:29:15.765Z,34.00
2023-03-28T13:35:12.549Z,34.11
2023-03-28T13:38:11.259Z,34.17
2023-03-28T13:41:15.812Z,34.36
2023-03-28T13:44:19.831Z,34.21
2023-03-28T14:00:25.770Z,34.15
2023-03-28T14:02:58.232Z,34.14
2023-03-28T14:05:30.519Z,33.70
2023-03-28T14:08:22.543Z,33.76
2023-03-28T14:11:28.830Z,33.76
2023-03-28T14:14:30.744Z,33.71
2023-03-28T14:20:24.197Z,33.96
2023-03-28T14:23:32.490Z,33.90
2023-03-28T14:26:07.196Z,33.86
2023-03-28T14:29:04.325Z,33.62
2023-03-28T14:35:48.197Z,33.50
2023-03-28T14:38:19.749Z,33.51
2023-03-28T14:44:14.923Z,33.81
2023-03-28T14:47:35.622Z,33.75
2023-03-28T14:50:22.187Z,33.71
2023-03-28T14:53:25.508Z,33.61
2023-03-28T14:56:18.072Z,33.62
2023-03-28T14:58:56.064Z,33.58
2023-03-28T15:02:01.265Z,33.64
2023-03-28T15:05:37.145Z,33.62
2023-03-28T15:08:31.678Z,33.62
2023-03-28T15:11:28.782Z,33.61
2023-03-28T15:17:34.735Z,33.50
2023-03-28T15:22:49.256Z,33.47
2023-03-28T15:28:17.578Z,33.53
2023-03-28T15:30:48.635Z,33.55
2023-03-28T15:33:23.420Z,33.58
2023-03-28T15:35:53.439Z,33.63
2023-03-28T15:38:39.892Z,33.62
2023-03-28T15:41:28.869Z,33.50
2023-03-28T15:47:29.317Z,33.42
2023-03-28T15:50:23.478Z,33.48
2023-03-28T15:53:08.024Z,33.56
2023-03-28T15:56:13.931Z,33.63
2023-03-28T15:59:11.661Z,33.75
2023-03-28T16:02:22.820Z,33.99
2023-03-28T16:05:37.850Z,34.11
2023-03-28T16:11:21.333Z,34.50
2023-03-28T16:14:42.234Z,34.55
2023-03-28T16:17:27.304Z,34.63
2023-03-28T16:20:27.384Z,34.64
2023-03-28T16:23:41.810Z,34.57
2023-03-28T16:26:15.637Z,34.54
2023-03-28T16:29:10.666Z,34.59
2023-03-28T16:32:29.053Z,34.61
2023-03-28T16:35:29.316Z,34.60
2023-03-28T16:44:32.545Z,34.52
2023-03-28T16:47:04.786Z,34.56
2023-03-28T16:53:53.901Z,34.52
2023-03-28T16:55:13.408Z,34.52
2023-03-28T16:57:44.444Z,34.52
2023-03-28T17:00:18.216Z,34.55
2023-03-28T17:02:52.927Z,34.55
2023-03-28T17:05:44.831Z,34.56
2023-03-28T17:08:51.508Z,34.56
2023-03-28T17:11:58.474Z,34.55
2023-03-28T17:14:52.092Z,34.60
2023-03-28T17:17:42.117Z,34.64
2023-03-28T17:23:35.527Z,34.70
2023-03-28T17:27:05.689Z,34.84
2023-03-28T17:29:56.396Z,34.96
2023-03-28T17:32:46.204Z,35.27
2023-03-28T17:35:43.636Z,35.44
2023-03-28T17:38:39.965Z,35.46
2023-03-28T17:45:01.756Z,36.24
2023-03-28T17:50:43.237Z,36.27
2023-03-28T17:50:45.758Z,36.44
2023-03-28T17:54:00.263Z,36.53
2023-03-28T17:56:39.006Z,36.33
2023-03-28T18:02:31.280Z,36.42
2023-03-28T18:11:43.044Z,36.40
2023-03-28T18:23:48.429Z,36.23
2023-03-28T18:26:31.674Z,36.16
2023-03-28T18:29:58.097Z,36.15
2023-03-28T18:35:39.704Z,36.12
2023-03-28T18:38:44.769Z,36.05
2023-03-28T18:41:50.571Z,36.08
2023-03-28T18:44:30.203Z,36.09
2023-03-28T18:50:43.567Z,36.00
2023-03-28T18:53:46.616Z,36.00
2023-03-28T18:56:45.298Z,35.97
2023-03-28T19:02:23.617Z,35.97
2023-03-28T19:07:34.748Z,35.93
2023-03-28T19:10:07.698Z,35.93
2023-03-28T19:12:38.199Z,35.88
2023-03-28T19:17:59.396Z,35.87
2023-03-28T19:21:08.028Z,35.87
2023-03-28T19:23:55.987Z,35.84
2023-03-28T20:02:33.995Z,35.89
2023-03-28T20:05:17.622Z,35.89
2023-03-28T20:07:43.788Z,35.92
2023-03-28T20:10:17.568Z,35.94
2023-03-28T20:12:55.559Z,35.93
2023-03-28T20:15:25.607Z,35.96
2023-03-28T20:18:06.459Z,35.97
2023-03-28T20:21:02.282Z,36.00
2023-03-28T20:24:08.815Z,35.94
2023-03-28T20:27:18.411Z,35.86
2023-03-28T20:30:01.199Z,35.93
2023-03-28T20:33:03.363Z,35.85
2023-03-28T20:36:33.750Z,35.88
2023-03-28T20:39:04.980Z,35.93
2023-03-28T20:44:43.568Z,35.95
2023-03-28T20:47:40.131Z,35.97
2023-03-28T20:53:45.659Z,35.97
2023-03-28T20:59:49.670Z,35.97
2023-03-28T21:03:00.826Z,36.00
2023-03-28T21:05:51.561Z,36.00
2023-03-28T21:15:17.722Z,35.99
2023-03-28T21:18:05.354Z,35.95
2023-03-28T21:27:35.259Z,35.94
2023-03-28T21:30:15.512Z,35.95
2023-03-28T21:32:55.060Z,35.93
2023-03-28T21:35:41.169Z,35.89
2023-03-28T21:38:11.454Z,35.90
2023-03-28T21:40:41.733Z,35.87
2023-03-28T21:43:12.450Z,35.87
2023-03-28T21:45:44.260Z,35.91
2023-03-28T21:48:25.706Z,35.93
2023-03-28T21:51:01.542Z,35.92
2023-03-28T21:53:44.747Z,35.86
2023-03-28T21:56:15.373Z,35.82
2023-03-28T21:58:50.259Z,35.88
2023-03-28T22:01:20.711Z,35.93
2023-03-28T22:03:50.846Z,35.86
2023-03-28T22:06:21.708Z,35.88
2023-03-28T22:09:00.129Z,35.84
2023-03-28T22:12:09.360Z,35.83
2023-03-28T22:14:55.305Z,35.83
2023-03-28T22:20:52.630Z,35.83
2023-03-28T22:26:16.572Z,35.82
2023-03-28T22:28:47.205Z,35.77
2023-03-28T22:31:17.867Z,35.76
2023-03-28T22:33:48.371Z,35.80
2023-03-28T22:36:22.116Z,35.80
2023-03-28T22:39:15.877Z,35.82
2023-03-28T22:42:20.628Z,35.81
2023-03-28T22:45:30.134Z,35.79
2023-03-28T22:52:00.482Z,35.78
2023-03-28T22:54:47.762Z,35.76
2023-03-28T22:57:30.295Z,35.75
2023-03-28T23:09:15.416Z,35.79
2023-03-28T23:12:15.625Z,35.80
2023-03-28T23:15:35.964Z,35.80
2023-03-28T23:17:27.842Z,35.79
2023-03-28T23:20:00.976Z,35.81
2023-03-28T23:22:32.039Z,35.81
2023-03-28T23:25:04.041Z,35.80
2023-03-28T23:27:34.700Z,35.80
2023-03-28T23:30:26.878Z,35.78
2023-03-28T23:33:07.099Z,35.77
2023-03-28T23:36:13.465Z,35.75
2023-03-28T23:38:59.547Z,35.75
2023-03-28T23:41:33.730Z,35.75
2023-03-28T23:44:11.608Z,35.76
2023-03-28T23:46:49.072Z,35.75
2023-03-28T23:49:25.988Z,35.76
2023-03-28T23:51:57.356Z,35.77
2023-03-28T23:54:35.480Z,35.74
